»·PEaware :: N576TB KBLH-KSNA

N576TB :: KBLH-KSNA

FLIGHT INFORMATION

Flight Status: Arrived
Operator: Privately registered:
United States
More flights under this callsign
Pilot: Anonymous 8274 (8274)
Aircraft: BEECH AIRCRAFT DEBONAIR BONANZA
(BE33)
More flights by this aircraft type
Origin: KBLH Blythe
United States
Destination: KSNA John Wayne-Orange Co
United States
More flights between these airports :: More routes between these airports
Route: +
File this flight plan on PilotEdge
Remarks:
Altitude:
(Current/Filed)
0ft
Speed:
(Current/Filed)
0kts
Departed: 26-Apr-17 02:38 PM
Arrived: 26-Apr-17 03:43 PM
Distance/Time
Traveled:
158nm/1:05
Distance/Time
To Go:
Arrived

Flight Plot

Page will automatically refresh every two minutes.

Flight plan parsing failed; only flown route is shown


Map Options




Map Legend


Flown Route
Filed Route
Departure Airport
Arrival Airport
Navaid (VOR, NDB)
Fix

Horizontal Profiles

Position Reports

Time Latitude Longitude Heading Altitude Ground
Speed
26-Apr-17 14:39 33.646690 -115.069550 283 6457ft 133kts
26-Apr-17 14:40 33.656844 -115.110834 282 6478ft 133kts
26-Apr-17 14:41 33.667435 -115.153796 282 6481ft 135kts
26-Apr-17 14:42 33.680022 -115.196474 290 6480ft 137kts
26-Apr-17 14:43 33.696807 -115.238055 291 6453ft 138kts
26-Apr-17 14:44 33.713596 -115.279520 291 6453ft 137kts
26-Apr-17 14:45 33.726582 -115.321936 274 6452ft 134kts
26-Apr-17 14:46 33.729688 -115.366577 264 6450ft 134kts
26-Apr-17 14:47 33.724030 -115.410850 262 6452ft 134kts
26-Apr-17 14:48 33.718241 -115.455167 262 6452ft 134kts
26-Apr-17 14:49 33.711408 -115.499466 263 6446ft 143kts
26-Apr-17 14:50 33.697635 -115.547138 262 6455ft 156kts
26-Apr-17 14:51 33.683483 -115.597124 262 6454ft 159kts
26-Apr-17 14:52 33.669357 -115.647417 262 6454ft 160kts
26-Apr-17 14:53 33.655155 -115.698089 262 6454ft 160kts
26-Apr-17 14:54 33.646690 -115.748821 277 6454ft 152kts
26-Apr-17 14:55 33.644340 -115.799690 277 6453ft 152kts
26-Apr-17 14:56 33.642076 -115.849919 277 6453ft 152kts
26-Apr-17 14:57 33.639806 -115.900347 277 6453ft 152kts
26-Apr-17 14:58 33.641127 -115.949908 293 6454ft 144kts
26-Apr-17 14:59 33.658068 -115.991732 295 6450ft 143kts
26-Apr-17 15:00 33.668075 -116.038293 293 6441ft 145kts
26-Apr-17 15:01 33.678060 -116.085101 293 6434ft 144kts
26-Apr-17 15:02 33.687467 -116.129090 293 6436ft 144kts
26-Apr-17 15:03 33.697578 -116.175680 298 6435ft 142kts
26-Apr-17 15:04 33.717195 -116.215123 308 6436ft 139kts
26-Apr-17 15:05 33.737422 -116.254528 308 6436ft 140kts
26-Apr-17 15:06 33.758174 -116.294763 308 6436ft 142kts
26-Apr-17 15:07 33.779040 -116.335087 308 6435ft 142kts
26-Apr-17 15:08 33.800005 -116.375578 306 6427ft 142kts
26-Apr-17 15:09 33.820603 -116.414908 308 6492ft 140kts
26-Apr-17 15:10 33.841431 -116.454966 308 6461ft 142kts
26-Apr-17 15:11 33.862473 -116.495376 308 6461ft 142kts
26-Apr-17 15:12 33.883333 -116.535445 308 6461ft 141kts
26-Apr-17 15:13 33.903031 -116.576675 299 6460ft 144kts
26-Apr-17 15:14 33.915428 -116.622850 287 6460ft 149kts
26-Apr-17 15:15 33.921437 -116.672393 287 6460ft 149kts
26-Apr-17 15:16 33.924154 -116.722873 282 6460ft 151kts
26-Apr-17 15:17 33.926184 -116.773240 282 6460ft 150kts
26-Apr-17 15:18 33.929668 -116.822937 281 6570ft 144kts
26-Apr-17 15:19 33.937312 -116.869174 277 6754ft 144kts
26-Apr-17 15:20 33.943833 -116.917799 276 6750ft 150kts
26-Apr-17 15:21 33.948499 -116.969319 272 6611ft 153kts
26-Apr-17 15:22 33.951867 -117.019393 277 6557ft 148kts
26-Apr-17 15:23 33.947208 -117.070349 273 6478ft 156kts
26-Apr-17 15:24 33.941977 -117.117765 272 6077ft 164kts
26-Apr-17 15:25 33.936388 -117.171526 272 5574ft 162kts
26-Apr-17 15:26 33.930814 -117.221852 272 5575ft 146kts
26-Apr-17 15:27 33.928974 -117.268941 286 5579ft 136kts
26-Apr-17 15:28 33.940111 -117.310088 306 5577ft 127kts
26-Apr-17 15:29 33.948306 -117.351031 273 5578ft 141kts
26-Apr-17 15:30 33.938004 -117.396902 249 5576ft 153kts
26-Apr-17 15:31 33.914157 -117.440132 239 5523ft 160kts
26-Apr-17 15:32 33.889312 -117.483186 256 5523ft 154kts
26-Apr-17 15:33 33.877243 -117.533352 267 5187ft 166kts
26-Apr-17 15:34 33.867696 -117.589120 267 4601ft 173kts
26-Apr-17 15:35 33.863626 -117.643238 273 4476ft 156kts
26-Apr-17 15:36 33.865836 -117.693770 276 4475ft 144kts
26-Apr-17 15:37 33.863361 -117.742187 275 4477ft 146kts
26-Apr-17 15:38 33.859689 -117.790661 275 4477ft 147kts
26-Apr-17 15:39 33.845924 -117.835350 234 4528ft 165kts
26-Apr-17 15:40 33.802178 -117.833920 160 3630ft 183kts
26-Apr-17 15:41 33.756502 -117.824492 187 2532ft 152kts
26-Apr-17 15:42 33.724316 -117.835427 209 1618ft 105kts
26-Apr-17 15:43 33.700064 -117.851458 207 666ft 97kts
26-Apr-17 15:44 33.681229 -117.863446 207 95ft 57kts
26-Apr-17 15:45 33.673838 -117.867516 118 60ft 0kts
26-Apr-17 15:46 33.673838 -117.867516 118 60ft 0kts
26-Apr-17 15:47 33.670881 -117.869092 219 59ft 23kts
26-Apr-17 15:48 33.667199 -117.872037 44 59ft 0kts
26-Apr-17 15:49 33.667199 -117.872037 44 59ft 0kts
26-Apr-17 15:50 33.667199 -117.872037 44 59ft 0kts
26-Apr-17 15:51 33.667199 -117.872037 44 59ft 0kts

Navigation Log

Ident Type
Flight plan parsing failed, navigation log unavailable